sensor_id;sensor_type;location;lat;lon;timestamp;P1;durP1;ratioP1;P2;durP2;ratioP2
45812;SDS011;31519;45.408;10.962;2022-12-24T00:01:35;86.05;;;41.28;;
45812;SDS011;31519;45.408;10.962;2022-12-24T00:04:03;74.75;;;39.30;;
45812;SDS011;31519;45.408;10.962;2022-12-24T00:06:32;83.97;;;39.60;;
45812;SDS011;31519;45.408;10.962;2022-12-24T00:09:00;74.93;;;38.25;;
45812;SDS011;31519;45.408;10.962;2022-12-24T00:11:28;75.10;;;38.88;;
45812;SDS011;31519;45.408;10.962;2022-12-24T00:13:56;70.95;;;36.67;;
45812;SDS011;31519;45.408;10.962;2022-12-24T00:16:25;81.10;;;37.58;;
45812;SDS011;31519;45.408;10.962;2022-12-24T00:18:53;79.57;;;36.67;;
45812;SDS011;31519;45.408;10.962;2022-12-24T00:21:21;74.72;;;37.42;;
45812;SDS011;31519;45.408;10.962;2022-12-24T00:23:49;71.20;;;37.00;;
45812;SDS011;31519;45.408;10.962;2022-12-24T00:26:18;77.57;;;38.45;;
45812;SDS011;31519;45.408;10.962;2022-12-24T00:28:46;69.97;;;36.65;;
45812;SDS011;31519;45.408;10.962;2022-12-24T00:31:15;75.28;;;37.90;;
45812;SDS011;31519;45.408;10.962;2022-12-24T00:33:45;77.65;;;37.45;;
45812;SDS011;31519;45.408;10.962;2022-12-24T00:36:14;72.97;;;37.00;;
45812;SDS011;31519;45.408;10.962;2022-12-24T00:38:43;82.68;;;37.70;;
45812;SDS011;31519;45.408;10.962;2022-12-24T00:41:13;70.53;;;36.03;;
45812;SDS011;31519;45.408;10.962;2022-12-24T00:43:53;71.28;;;36.67;;
45812;SDS011;31519;45.408;10.962;2022-12-24T00:46:23;69.55;;;36.25;;
45812;SDS011;31519;45.408;10.962;2022-12-24T00:48:53;81.22;;;37.05;;
45812;SDS011;31519;45.408;10.962;2022-12-24T00:51:22;73.78;;;36.67;;
45812;SDS011;31519;45.408;10.962;2022-12-24T00:53:51;79.72;;;36.05;;
45812;SDS011;31519;45.408;10.962;2022-12-24T00:56:20;77.75;;;35.38;;
45812;SDS011;31519;45.408;10.962;2022-12-24T00:58:49;85.88;;;35.60;;
45812;SDS011;31519;45.408;10.962;2022-12-24T01:01:17;75.60;;;36.78;;
45812;SDS011;31519;45.408;10.962;2022-12-24T01:03:46;83.70;;;37.33;;
45812;SDS011;31519;45.408;10.962;2022-12-24T01:06:16;70.65;;;36.28;;
45812;SDS011;31519;45.408;10.962;2022-12-24T01:08:49;73.85;;;36.55;;
45812;SDS011;31519;45.408;10.962;2022-12-24T01:11:19;69.90;;;33.67;;
45812;SDS011;31519;45.408;10.962;2022-12-24T01:13:48;69.38;;;35.50;;
45812;SDS011;31519;45.408;10.962;2022-12-24T01:16:18;72.57;;;35.88;;
45812;SDS011;31519;45.408;10.962;2022-12-24T01:18:47;76.68;;;33.60;;
45812;SDS011;31519;45.408;10.962;2022-12-24T01:21:15;62.10;;;32.05;;
45812;SDS011;31519;45.408;10.962;2022-12-24T01:23:43;64.65;;;32.97;;
45812;SDS011;31519;45.408;10.962;2022-12-24T01:26:12;70.90;;;35.35;;
45812;SDS011;31519;45.408;10.962;2022-12-24T01:28:41;67.00;;;35.50;;
45812;SDS011;31519;45.408;10.962;2022-12-24T01:31:10;70.65;;;34.72;;
45812;SDS011;31519;45.408;10.962;2022-12-24T01:33:40;73.57;;;37.75;;
45812;SDS011;31519;45.408;10.962;2022-12-24T01:36:10;69.22;;;35.10;;
45812;SDS011;31519;45.408;10.962;2022-12-24T01:38:39;77.50;;;37.83;;
45812;SDS011;31519;45.408;10.962;2022-12-24T01:41:12;74.07;;;37.20;;
45812;SDS011;31519;45.408;10.962;2022-12-24T01:47:16;84.25;;;35.63;;
45812;SDS011;31519;45.408;10.962;2022-12-24T01:49:59;76.20;;;37.08;;
45812;SDS011;31519;45.408;10.962;2022-12-24T01:52:32;75.13;;;36.55;;
45812;SDS011;31519;45.408;10.962;2022-12-24T01:55:05;71.75;;;34.75;;
45812;SDS011;31519;45.408;10.962;2022-12-24T01:57:41;73.68;;;36.13;;
45812;SDS011;31519;45.408;10.962;2022-12-24T02:00:14;68.03;;;34.70;;
45812;SDS011;31519;45.408;10.962;2022-12-24T02:02:44;68.85;;;37.00;;
45812;SDS011;31519;45.408;10.962;2022-12-24T02:08:18;82.75;;;37.13;;
45812;SDS011;31519;45.408;10.962;2022-12-24T02:10:47;71.20;;;35.67;;
45812;SDS011;31519;45.408;10.962;2022-12-24T02:13:18;66.72;;;34.25;;
45812;SDS011;31519;45.408;10.962;2022-12-24T02:18:59;66.82;;;34.70;;
45812;SDS011;31519;45.408;10.962;2022-12-24T02:27:25;70.95;;;34.95;;
45812;SDS011;31519;45.408;10.962;2022-12-24T02:30:14;68.10;;;33.58;;
45812;SDS011;31519;45.408;10.962;2022-12-24T02:33:03;67.18;;;34.15;;
45812;SDS011;31519;45.408;10.962;2022-12-24T02:36:00;68.55;;;32.35;;
45812;SDS011;31519;45.408;10.962;2022-12-24T02:41:29;72.88;;;34.20;;
45812;SDS011;31519;45.408;10.962;2022-12-24T02:44:21;70.97;;;33.78;;
45812;SDS011;31519;45.408;10.962;2022-12-24T02:46:52;77.22;;;35.60;;
45812;SDS011;31519;45.408;10.962;2022-12-24T02:49:22;67.32;;;32.65;;
45812;SDS011;31519;45.408;10.962;2022-12-24T02:51:50;72.35;;;33.80;;
45812;SDS011;31519;45.408;10.962;2022-12-24T02:54:18;72.32;;;33.85;;
45812;SDS011;31519;45.408;10.962;2022-12-24T03:04:58;71.25;;;34.40;;
45812;SDS011;31519;45.408;10.962;2022-12-24T03:11:01;67.60;;;31.52;;
45812;SDS011;31519;45.408;10.962;2022-12-24T03:13:37;57.72;;;31.58;;
45812;SDS011;31519;45.408;10.962;2022-12-24T03:16:06;61.13;;;31.33;;
45812;SDS011;31519;45.408;10.962;2022-12-24T03:18:39;62.25;;;32.55;;
45812;SDS011;31519;45.408;10.962;2022-12-24T03:21:12;58.70;;;32.67;;
45812;SDS011;31519;45.408;10.962;2022-12-24T03:23:49;69.97;;;32.55;;
45812;SDS011;31519;45.408;10.962;2022-12-24T03:26:17;63.90;;;32.33;;
45812;SDS011;31519;45.408;10.962;2022-12-24T03:28:47;62.88;;;31.90;;
45812;SDS011;31519;45.408;10.962;2022-12-24T03:31:15;64.43;;;32.72;;
45812;SDS011;31519;45.408;10.962;2022-12-24T03:33:45;63.85;;;32.30;;
45812;SDS011;31519;45.408;10.962;2022-12-24T03:36:14;59.53;;;32.38;;
45812;SDS011;31519;45.408;10.962;2022-12-24T03:38:43;67.82;;;31.73;;
45812;SDS011;31519;45.408;10.962;2022-12-24T03:41:11;73.15;;;33.72;;
45812;SDS011;31519;45.408;10.962;2022-12-24T03:43:39;64.75;;;32.95;;
45812;SDS011;31519;45.408;10.962;2022-12-24T03:46:07;63.38;;;32.88;;
45812;SDS011;31519;45.408;10.962;2022-12-24T03:48:35;71.10;;;33.97;;
45812;SDS011;31519;45.408;10.962;2022-12-24T03:51:03;63.75;;;32.70;;
45812;SDS011;31519;45.408;10.962;2022-12-24T03:53:33;66.45;;;31.38;;
45812;SDS011;31519;45.408;10.962;2022-12-24T03:56:01;59.53;;;32.00;;
45812;SDS011;31519;45.408;10.962;2022-12-24T03:58:30;61.28;;;30.88;;
45812;SDS011;31519;45.408;10.962;2022-12-24T04:00:58;63.78;;;33.80;;
45812;SDS011;31519;45.408;10.962;2022-12-24T04:03:27;62.50;;;31.65;;
45812;SDS011;31519;45.408;10.962;2022-12-24T04:08:31;63.58;;;32.22;;
45812;SDS011;31519;45.408;10.962;2022-12-24T04:11:00;63.00;;;31.95;;
45812;SDS011;31519;45.408;10.962;2022-12-24T04:13:36;62.28;;;30.50;;
45812;SDS011;31519;45.408;10.962;2022-12-24T04:16:05;67.43;;;33.53;;
45812;SDS011;31519;45.408;10.962;2022-12-24T04:18:36;66.40;;;33.97;;
45812;SDS011;31519;45.408;10.962;2022-12-24T04:21:06;66.10;;;33.90;;
45812;SDS011;31519;45.408;10.962;2022-12-24T04:23:35;66.57;;;34.30;;
45812;SDS011;31519;45.408;10.962;2022-12-24T04:26:06;73.43;;;31.80;;
45812;SDS011;31519;45.408;10.962;2022-12-24T04:28:37;69.15;;;33.67;;
45812;SDS011;31519;45.408;10.962;2022-12-24T04:31:10;62.15;;;33.15;;
45812;SDS011;31519;45.408;10.962;2022-12-24T04:33:41;68.32;;;33.75;;
45812;SDS011;31519;45.408;10.962;2022-12-24T04:36:10;64.97;;;33.05;;
45812;SDS011;31519;45.408;10.962;2022-12-24T04:38:41;62.95;;;32.13;;
45812;SDS011;31519;45.408;10.962;2022-12-24T04:41:14;63.40;;;31.10;;
45812;SDS011;31519;45.408;10.962;2022-12-24T04:43:52;59.72;;;30.42;;
45812;SDS011;31519;45.408;10.962;2022-12-24T04:46:25;67.65;;;29.25;;
45812;SDS011;31519;45.408;10.962;2022-12-24T04:48:57;54.97;;;27.40;;
45812;SDS011;31519;45.408;10.962;2022-12-24T04:51:27;51.88;;;25.27;;
45812;SDS011;31519;45.408;10.962;2022-12-24T04:53:56;52.05;;;24.30;;
45812;SDS011;31519;45.408;10.962;2022-12-24T04:56:25;57.33;;;24.88;;
45812;SDS011;31519;45.408;10.962;2022-12-24T04:58:57;41.05;;;21.85;;
45812;SDS011;31519;45.408;10.962;2022-12-24T05:01:28;42.22;;;22.60;;
45812;SDS011;31519;45.408;10.962;2022-12-24T05:03:59;47.38;;;20.88;;
45812;SDS011;31519;45.408;10.962;2022-12-24T05:06:28;45.15;;;22.05;;
45812;SDS011;31519;45.408;10.962;2022-12-24T05:08:59;45.22;;;22.67;;
45812;SDS011;31519;45.408;10.962;2022-12-24T05:11:27;45.25;;;20.98;;
45812;SDS011;31519;45.408;10.962;2022-12-24T05:13:56;40.17;;;20.15;;
45812;SDS011;31519;45.408;10.962;2022-12-24T05:16:24;55.45;;;24.10;;
45812;SDS011;31519;45.408;10.962;2022-12-24T05:18:53;39.60;;;20.38;;
45812;SDS011;31519;45.408;10.962;2022-12-24T05:21:21;43.17;;;19.35;;
45812;SDS011;31519;45.408;10.962;2022-12-24T05:23:51;37.47;;;18.23;;
45812;SDS011;31519;45.408;10.962;2022-12-24T05:26:47;38.42;;;19.30;;
45812;SDS011;31519;45.408;10.962;2022-12-24T05:29:20;34.72;;;17.83;;
45812;SDS011;31519;45.408;10.962;2022-12-24T05:31:48;40.67;;;19.45;;
45812;SDS011;31519;45.408;10.962;2022-12-24T05:34:16;35.60;;;18.13;;
45812;SDS011;31519;45.408;10.962;2022-12-24T05:36:44;47.17;;;22.10;;
45812;SDS011;31519;45.408;10.962;2022-12-24T05:39:13;39.97;;;21.25;;
45812;SDS011;31519;45.408;10.962;2022-12-24T05:41:44;39.80;;;19.70;;
45812;SDS011;31519;45.408;10.962;2022-12-24T05:44:13;45.22;;;19.58;;
45812;SDS011;31519;45.408;10.962;2022-12-24T05:46:42;43.60;;;21.17;;
45812;SDS011;31519;45.408;10.962;2022-12-24T05:49:13;49.63;;;20.25;;
45812;SDS011;31519;45.408;10.962;2022-12-24T05:51:41;42.25;;;21.27;;
45812;SDS011;31519;45.408;10.962;2022-12-24T05:54:10;51.00;;;23.13;;
45812;SDS011;31519;45.408;10.962;2022-12-24T05:56:38;39.25;;;20.83;;
45812;SDS011;31519;45.408;10.962;2022-12-24T05:59:06;50.80;;;22.27;;
45812;SDS011;31519;45.408;10.962;2022-12-24T06:01:34;46.47;;;22.40;;
45812;SDS011;31519;45.408;10.962;2022-12-24T06:04:03;50.47;;;22.80;;
45812;SDS011;31519;45.408;10.962;2022-12-24T06:06:31;46.83;;;21.85;;
45812;SDS011;31519;45.408;10.962;2022-12-24T06:08:59;46.38;;;22.65;;
45812;SDS011;31519;45.408;10.962;2022-12-24T06:11:27;52.63;;;25.67;;
45812;SDS011;31519;45.408;10.962;2022-12-24T06:13:56;57.47;;;23.05;;
45812;SDS011;31519;45.408;10.962;2022-12-24T06:16:24;44.85;;;22.30;;
45812;SDS011;31519;45.408;10.962;2022-12-24T06:18:53;42.17;;;22.27;;
45812;SDS011;31519;45.408;10.962;2022-12-24T06:21:21;44.88;;;22.98;;
45812;SDS011;31519;45.408;10.962;2022-12-24T06:23:50;44.00;;;20.42;;
45812;SDS011;31519;45.408;10.962;2022-12-24T06:26:19;38.92;;;19.65;;
45812;SDS011;31519;45.408;10.962;2022-12-24T06:28:49;43.10;;;19.40;;
45812;SDS011;31519;45.408;10.962;2022-12-24T06:31:19;37.65;;;19.73;;
45812;SDS011;31519;45.408;10.962;2022-12-24T06:33:50;40.25;;;20.38;;
45812;SDS011;31519;45.408;10.962;2022-12-24T06:36:20;37.13;;;20.27;;
45812;SDS011;31519;45.408;10.962;2022-12-24T06:38:51;44.83;;;23.30;;
45812;SDS011;31519;45.408;10.962;2022-12-24T06:41:21;42.55;;;23.05;;
45812;SDS011;31519;45.408;10.962;2022-12-24T06:43:50;50.15;;;22.83;;
45812;SDS011;31519;45.408;10.962;2022-12-24T06:46:19;46.58;;;24.70;;
45812;SDS011;31519;45.408;10.962;2022-12-24T06:48:49;55.10;;;23.35;;
45812;SDS011;31519;45.408;10.962;2022-12-24T06:51:17;48.03;;;23.48;;
45812;SDS011;31519;45.408;10.962;2022-12-24T06:53:49;44.38;;;23.88;;
45812;SDS011;31519;45.408;10.962;2022-12-24T06:56:18;51.95;;;24.60;;
45812;SDS011;31519;45.408;10.962;2022-12-24T06:58:47;49.63;;;24.50;;
45812;SDS011;31519;45.408;10.962;2022-12-24T07:01:16;49.53;;;24.75;;
45812;SDS011;31519;45.408;10.962;2022-12-24T07:03:46;51.45;;;25.17;;
45812;SDS011;31519;45.408;10.962;2022-12-24T07:06:18;56.97;;;25.80;;
45812;SDS011;31519;45.408;10.962;2022-12-24T07:08:57;56.08;;;27.38;;
45812;SDS011;31519;45.408;10.962;2022-12-24T07:11:25;49.33;;;25.90;;
45812;SDS011;31519;45.408;10.962;2022-12-24T07:13:55;61.78;;;26.65;;
45812;SDS011;31519;45.408;10.962;2022-12-24T07:16:23;52.90;;;24.42;;
45812;SDS011;31519;45.408;10.962;2022-12-24T07:18:51;54.33;;;24.63;;
45812;SDS011;31519;45.408;10.962;2022-12-24T07:21:19;54.30;;;26.33;;
45812;SDS011;31519;45.408;10.962;2022-12-24T07:23:49;54.38;;;27.52;;
45812;SDS011;31519;45.408;10.962;2022-12-24T07:26:16;53.95;;;27.02;;
45812;SDS011;31519;45.408;10.962;2022-12-24T07:28:46;53.55;;;28.75;;
45812;SDS011;31519;45.408;10.962;2022-12-24T07:31:14;58.05;;;27.52;;
45812;SDS011;31519;45.408;10.962;2022-12-24T07:33:43;59.78;;;28.38;;
45812;SDS011;31519;45.408;10.962;2022-12-24T07:36:13;63.97;;;29.83;;
45812;SDS011;31519;45.408;10.962;2022-12-24T07:38:47;63.97;;;29.17;;
45812;SDS011;31519;45.408;10.962;2022-12-24T07:41:15;65.68;;;30.33;;
45812;SDS011;31519;45.408;10.962;2022-12-24T07:43:44;68.45;;;31.83;;
45812;SDS011;31519;45.408;10.962;2022-12-24T07:46:12;66.10;;;30.88;;
45812;SDS011;31519;45.408;10.962;2022-12-24T07:48:40;59.80;;;30.35;;
45812;SDS011;31519;45.408;10.962;2022-12-24T07:51:08;55.75;;;27.73;;
45812;SDS011;31519;45.408;10.962;2022-12-24T07:53:38;55.83;;;28.00;;
45812;SDS011;31519;45.408;10.962;2022-12-24T07:56:06;50.97;;;27.48;;
45812;SDS011;31519;45.408;10.962;2022-12-24T07:58:39;56.90;;;27.67;;
45812;SDS011;31519;45.408;10.962;2022-12-24T08:01:08;58.03;;;29.85;;
45812;SDS011;31519;45.408;10.962;2022-12-24T08:03:37;59.25;;;27.35;;
45812;SDS011;31519;45.408;10.962;2022-12-24T08:06:06;58.58;;;29.45;;
45812;SDS011;31519;45.408;10.962;2022-12-24T08:08:36;52.22;;;29.05;;
45812;SDS011;31519;45.408;10.962;2022-12-24T08:11:05;61.38;;;28.05;;
45812;SDS011;31519;45.408;10.962;2022-12-24T08:13:34;59.67;;;30.70;;
45812;SDS011;31519;45.408;10.962;2022-12-24T08:16:02;60.03;;;27.25;;
45812;SDS011;31519;45.408;10.962;2022-12-24T08:18:32;61.45;;;30.58;;
45812;SDS011;31519;45.408;10.962;2022-12-24T08:21:00;56.72;;;28.02;;
45812;SDS011;31519;45.408;10.962;2022-12-24T08:23:28;61.35;;;30.67;;
45812;SDS011;31519;45.408;10.962;2022-12-24T08:25:57;58.97;;;29.00;;
45812;SDS011;31519;45.408;10.962;2022-12-24T08:28:26;56.58;;;27.27;;
45812;SDS011;31519;45.408;10.962;2022-12-24T08:30:54;59.00;;;27.50;;
45812;SDS011;31519;45.408;10.962;2022-12-24T08:33:22;57.80;;;28.17;;
45812;SDS011;31519;45.408;10.962;2022-12-24T08:35:51;57.92;;;27.60;;
45812;SDS011;31519;45.408;10.962;2022-12-24T08:38:21;50.95;;;25.88;;
45812;SDS011;31519;45.408;10.962;2022-12-24T08:40:51;54.90;;;26.90;;
45812;SDS011;31519;45.408;10.962;2022-12-24T08:43:21;57.30;;;29.38;;
45812;SDS011;31519;45.408;10.962;2022-12-24T08:45:52;57.53;;;27.77;;
45812;SDS011;31519;45.408;10.962;2022-12-24T08:48:20;66.32;;;29.73;;
45812;SDS011;31519;45.408;10.962;2022-12-24T08:50:49;62.13;;;28.55;;
45812;SDS011;31519;45.408;10.962;2022-12-24T08:53:18;58.10;;;28.70;;
45812;SDS011;31519;45.408;10.962;2022-12-24T08:55:46;63.65;;;30.15;;
45812;SDS011;31519;45.408;10.962;2022-12-24T08:58:22;59.03;;;28.45;;
45812;SDS011;31519;45.408;10.962;2022-12-24T09:00:51;60.95;;;30.17;;
45812;SDS011;31519;45.408;10.962;2022-12-24T09:03:19;65.93;;;28.30;;
45812;SDS011;31519;45.408;10.962;2022-12-24T09:05:54;54.30;;;28.38;;
45812;SDS011;31519;45.408;10.962;2022-12-24T09:08:22;57.50;;;28.88;;
45812;SDS011;31519;45.408;10.962;2022-12-24T09:10:51;59.38;;;31.00;;
45812;SDS011;31519;45.408;10.962;2022-12-24T09:13:19;58.42;;;30.75;;
45812;SDS011;31519;45.408;10.962;2022-12-24T09:15:54;68.28;;;31.02;;
45812;SDS011;31519;45.408;10.962;2022-12-24T09:18:23;70.15;;;30.02;;
45812;SDS011;31519;45.408;10.962;2022-12-24T09:20:56;60.13;;;29.45;;
45812;SDS011;31519;45.408;10.962;2022-12-24T09:23:26;65.15;;;30.15;;
45812;SDS011;31519;45.408;10.962;2022-12-24T09:25:54;64.95;;;31.50;;
45812;SDS011;31519;45.408;10.962;2022-12-24T09:28:23;69.32;;;31.13;;
45812;SDS011;31519;45.408;10.962;2022-12-24T09:30:57;63.08;;;29.33;;
45812;SDS011;31519;45.408;10.962;2022-12-24T09:33:27;66.97;;;31.95;;
45812;SDS011;31519;45.408;10.962;2022-12-24T09:35:57;66.28;;;30.38;;
45812;SDS011;31519;45.408;10.962;2022-12-24T09:38:25;72.95;;;31.30;;
45812;SDS011;31519;45.408;10.962;2022-12-24T09:40:54;74.68;;;31.88;;
45812;SDS011;31519;45.408;10.962;2022-12-24T09:43:24;65.03;;;31.83;;
45812;SDS011;31519;45.408;10.962;2022-12-24T09:48:29;58.28;;;31.80;;
45812;SDS011;31519;45.408;10.962;2022-12-24T09:51:04;63.88;;;32.75;;
45812;SDS011;31519;45.408;10.962;2022-12-24T09:53:52;62.67;;;31.60;;
45812;SDS011;31519;45.408;10.962;2022-12-24T09:56:39;66.47;;;32.67;;
45812;SDS011;31519;45.408;10.962;2022-12-24T09:59:16;67.60;;;32.72;;
45812;SDS011;31519;45.408;10.962;2022-12-24T10:01:50;70.57;;;32.60;;
45812;SDS011;31519;45.408;10.962;2022-12-24T10:04:23;65.85;;;34.92;;
45812;SDS011;31519;45.408;10.962;2022-12-24T10:09:34;76.80;;;38.05;;
45812;SDS011;31519;45.408;10.962;2022-12-24T10:23:53;103.93;;;47.05;;
45812;SDS011;31519;45.408;10.962;2022-12-24T10:26:49;99.35;;;48.50;;
45812;SDS011;31519;45.408;10.962;2022-12-24T10:29:24;99.82;;;45.58;;
45812;SDS011;31519;45.408;10.962;2022-12-24T10:34:44;110.13;;;48.28;;
45812;SDS011;31519;45.408;10.962;2022-12-24T10:37:23;118.75;;;50.50;;
45812;SDS011;31519;45.408;10.962;2022-12-24T10:42:35;112.30;;;49.50;;
45812;SDS011;31519;45.408;10.962;2022-12-24T10:45:31;113.90;;;46.75;;
45812;SDS011;31519;45.408;10.962;2022-12-24T10:48:06;112.80;;;50.80;;
45812;SDS011;31519;45.408;10.962;2022-12-24T10:50:54;101.22;;;48.42;;
45812;SDS011;31519;45.408;10.962;2022-12-24T10:53:31;123.30;;;50.40;;
45812;SDS011;31519;45.408;10.962;2022-12-24T10:56:07;102.00;;;46.95;;
45812;SDS011;31519;45.408;10.962;2022-12-24T10:58:43;99.15;;;47.25;;
45812;SDS011;31519;45.408;10.962;2022-12-24T11:01:13;98.53;;;45.15;;
45812;SDS011;31519;45.408;10.962;2022-12-24T11:03:43;107.30;;;47.67;;
45812;SDS011;31519;45.408;10.962;2022-12-24T11:06:13;100.93;;;47.08;;
45812;SDS011;31519;45.408;10.962;2022-12-24T11:08:48;101.32;;;45.92;;
45812;SDS011;31519;45.408;10.962;2022-12-24T11:11:19;97.03;;;44.72;;
45812;SDS011;31519;45.408;10.962;2022-12-24T11:16:31;90.43;;;43.30;;
45812;SDS011;31519;45.408;10.962;2022-12-24T11:19:03;89.60;;;42.75;;
45812;SDS011;31519;45.408;10.962;2022-12-24T11:21:34;104.00;;;44.90;;
45812;SDS011;31519;45.408;10.962;2022-12-24T11:24:27;88.50;;;41.42;;
45812;SDS011;31519;45.408;10.962;2022-12-24T11:32:51;103.25;;;42.88;;
45812;SDS011;31519;45.408;10.962;2022-12-24T11:35:45;109.68;;;46.22;;
45812;SDS011;31519;45.408;10.962;2022-12-24T11:38:20;105.72;;;46.38;;
45812;SDS011;31519;45.408;10.962;2022-12-24T11:43:49;89.90;;;39.30;;
45812;SDS011;31519;45.408;10.962;2022-12-24T11:46:34;100.65;;;43.03;;
45812;SDS011;31519;45.408;10.962;2022-12-24T11:51:34;111.80;;;44.85;;
45812;SDS011;31519;45.408;10.962;2022-12-24T11:54:08;107.88;;;45.78;;
45812;SDS011;31519;45.408;10.962;2022-12-24T11:56:44;108.45;;;46.95;;
45812;SDS011;31519;45.408;10.962;2022-12-24T12:02:27;115.78;;;48.40;;
45812;SDS011;31519;45.408;10.962;2022-12-24T12:04:54;117.10;;;48.72;;
45812;SDS011;31519;45.408;10.962;2022-12-24T12:13:01;113.88;;;49.00;;
45812;SDS011;31519;45.408;10.962;2022-12-24T12:15:40;110.50;;;46.03;;
45812;SDS011;31519;45.408;10.962;2022-12-24T12:18:23;109.32;;;48.97;;
45812;SDS011;31519;45.408;10.962;2022-12-24T12:20:59;100.47;;;46.42;;
45812;SDS011;31519;45.408;10.962;2022-12-24T12:23:34;104.55;;;46.10;;
45812;SDS011;31519;45.408;10.962;2022-12-24T12:26:14;109.18;;;47.35;;
45812;SDS011;31519;45.408;10.962;2022-12-24T12:28:57;111.15;;;47.15;;
45812;SDS011;31519;45.408;10.962;2022-12-24T12:31:34;116.70;;;51.78;;
45812;SDS011;31519;45.408;10.962;2022-12-24T12:34:20;124.55;;;50.20;;
45812;SDS011;31519;45.408;10.962;2022-12-24T12:37:01;119.88;;;49.70;;
45812;SDS011;31519;45.408;10.962;2022-12-24T12:39:41;115.72;;;49.72;;
45812;SDS011;31519;45.408;10.962;2022-12-24T12:48:04;128.88;;;53.28;;
45812;SDS011;31519;45.408;10.962;2022-12-24T12:51:01;123.20;;;52.30;;
45812;SDS011;31519;45.408;10.962;2022-12-24T12:56:32;129.23;;;51.95;;
45812;SDS011;31519;45.408;10.962;2022-12-24T13:07:03;128.38;;;53.33;;
45812;SDS011;31519;45.408;10.962;2022-12-24T13:12:58;111.72;;;48.08;;
45812;SDS011;31519;45.408;10.962;2022-12-24T13:18:37;97.95;;;44.10;;
45812;SDS011;31519;45.408;10.962;2022-12-24T13:21:18;102.47;;;46.25;;
45812;SDS011;31519;45.408;10.962;2022-12-24T13:23:49;95.60;;;44.38;;
45812;SDS011;31519;45.408;10.962;2022-12-24T13:26:19;93.85;;;44.17;;
45812;SDS011;31519;45.408;10.962;2022-12-24T13:28:47;90.68;;;43.67;;
45812;SDS011;31519;45.408;10.962;2022-12-24T13:36:12;81.30;;;40.30;;
45812;SDS011;31519;45.408;10.962;2022-12-24T13:38:56;86.20;;;39.85;;
45812;SDS011;31519;45.408;10.962;2022-12-24T13:46:48;75.85;;;39.08;;
45812;SDS011;31519;45.408;10.962;2022-12-24T13:49:28;78.32;;;39.85;;
45812;SDS011;31519;45.408;10.962;2022-12-24T13:57:27;83.07;;;39.42;;
45812;SDS011;31519;45.408;10.962;2022-12-24T14:02:45;75.75;;;37.92;;
45812;SDS011;31519;45.408;10.962;2022-12-24T14:05:26;78.25;;;37.97;;
45812;SDS011;31519;45.408;10.962;2022-12-24T14:08:12;76.47;;;36.95;;
45812;SDS011;31519;45.408;10.962;2022-12-24T14:11:05;68.25;;;34.85;;
45812;SDS011;31519;45.408;10.962;2022-12-24T14:18:37;78.38;;;38.38;;
45812;SDS011;31519;45.408;10.962;2022-12-24T14:21:13;76.68;;;37.40;;
45812;SDS011;31519;45.408;10.962;2022-12-24T14:23:51;77.38;;;40.42;;
45812;SDS011;31519;45.408;10.962;2022-12-24T14:26:23;85.28;;;40.67;;
45812;SDS011;31519;45.408;10.962;2022-12-24T14:28:59;84.88;;;40.42;;
45812;SDS011;31519;45.408;10.962;2022-12-24T14:31:55;77.15;;;38.97;;
45812;SDS011;31519;45.408;10.962;2022-12-24T14:34:26;84.13;;;41.88;;
45812;SDS011;31519;45.408;10.962;2022-12-24T14:36:54;95.63;;;43.13;;
45812;SDS011;31519;45.408;10.962;2022-12-24T14:39:27;83.13;;;42.30;;
45812;SDS011;31519;45.408;10.962;2022-12-24T14:53:35;86.13;;;42.88;;
45812;SDS011;31519;45.408;10.962;2022-12-24T14:56:12;89.65;;;45.15;;
45812;SDS011;31519;45.408;10.962;2022-12-24T14:58:42;88.45;;;42.42;;
45812;SDS011;31519;45.408;10.962;2022-12-24T15:06:33;110.68;;;48.13;;
45812;SDS011;31519;45.408;10.962;2022-12-24T15:09:12;120.75;;;55.72;;
45812;SDS011;31519;45.408;10.962;2022-12-24T15:11:43;116.15;;;51.38;;
45812;SDS011;31519;45.408;10.962;2022-12-24T15:14:13;98.03;;;46.75;;
45812;SDS011;31519;45.408;10.962;2022-12-24T15:16:54;103.00;;;47.15;;
45812;SDS011;31519;45.408;10.962;2022-12-24T15:19:46;100.25;;;47.00;;
45812;SDS011;31519;45.408;10.962;2022-12-24T15:22:23;106.70;;;47.33;;
45812;SDS011;31519;45.408;10.962;2022-12-24T15:24:52;97.43;;;45.35;;
45812;SDS011;31519;45.408;10.962;2022-12-24T15:27:22;96.35;;;48.28;;
45812;SDS011;31519;45.408;10.962;2022-12-24T15:29:53;95.15;;;44.40;;
45812;SDS011;31519;45.408;10.962;2022-12-24T15:32:26;95.25;;;44.72;;
45812;SDS011;31519;45.408;10.962;2022-12-24T15:34:54;137.68;;;46.08;;
45812;SDS011;31519;45.408;10.962;2022-12-24T15:37:24;216.27;;;54.03;;
45812;SDS011;31519;45.408;10.962;2022-12-24T15:42:33;97.65;;;45.05;;
45812;SDS011;31519;45.408;10.962;2022-12-24T15:45:03;101.20;;;46.78;;
45812;SDS011;31519;45.408;10.962;2022-12-24T15:47:42;106.40;;;46.45;;
45812;SDS011;31519;45.408;10.962;2022-12-24T15:50:14;96.43;;;45.08;;
45812;SDS011;31519;45.408;10.962;2022-12-24T15:52:44;99.43;;;47.33;;
45812;SDS011;31519;45.408;10.962;2022-12-24T15:55:37;99.80;;;46.22;;
45812;SDS011;31519;45.408;10.962;2022-12-24T15:58:26;94.63;;;45.72;;
45812;SDS011;31519;45.408;10.962;2022-12-24T16:03:37;93.93;;;45.80;;
45812;SDS011;31519;45.408;10.962;2022-12-24T16:06:08;89.53;;;40.83;;
45812;SDS011;31519;45.408;10.962;2022-12-24T16:08:41;90.00;;;42.55;;
45812;SDS011;31519;45.408;10.962;2022-12-24T16:11:17;91.28;;;47.03;;
45812;SDS011;31519;45.408;10.962;2022-12-24T16:16:29;94.80;;;45.63;;
45812;SDS011;31519;45.408;10.962;2022-12-24T16:19:00;96.82;;;44.20;;
45812;SDS011;31519;45.408;10.962;2022-12-24T16:21:31;94.63;;;45.30;;
45812;SDS011;31519;45.408;10.962;2022-12-24T16:24:44;87.40;;;45.08;;
45812;SDS011;31519;45.408;10.962;2022-12-24T16:26:56;101.35;;;47.10;;
45812;SDS011;31519;45.408;10.962;2022-12-24T16:29:25;92.85;;;44.80;;
45812;SDS011;31519;45.408;10.962;2022-12-24T16:31:55;89.80;;;45.45;;
45812;SDS011;31519;45.408;10.962;2022-12-24T16:34:26;89.07;;;44.63;;
45812;SDS011;31519;45.408;10.962;2022-12-24T16:36:57;86.88;;;43.83;;
45812;SDS011;31519;45.408;10.962;2022-12-24T16:39:33;87.55;;;45.00;;
45812;SDS011;31519;45.408;10.962;2022-12-24T16:42:02;103.78;;;45.83;;
45812;SDS011;31519;45.408;10.962;2022-12-24T16:44:51;92.78;;;46.05;;
45812;SDS011;31519;45.408;10.962;2022-12-24T16:47:24;98.75;;;43.85;;
45812;SDS011;31519;45.408;10.962;2022-12-24T16:50:04;98.05;;;45.42;;
45812;SDS011;31519;45.408;10.962;2022-12-24T16:52:35;100.00;;;48.35;;
45812;SDS011;31519;45.408;10.962;2022-12-24T16:55:03;102.03;;;48.85;;
45812;SDS011;31519;45.408;10.962;2022-12-24T16:57:32;99.70;;;44.60;;
45812;SDS011;31519;45.408;10.962;2022-12-24T17:00:02;91.07;;;44.63;;
45812;SDS011;31519;45.408;10.962;2022-12-24T17:02:33;93.88;;;44.22;;
45812;SDS011;31519;45.408;10.962;2022-12-24T17:05:02;92.78;;;46.22;;